createdAt,value
2019-04-10T00:00:47.810Z,70.63
2019-04-10T00:03:28.132Z,70.03
2019-04-10T00:05:47.969Z,73.10
2019-04-10T00:08:17.768Z,71.00
2019-04-10T00:10:46.235Z,64.97
2019-04-10T00:13:14.528Z,66.53
2019-04-10T00:15:42.831Z,66.23
2019-04-10T00:18:11.393Z,65.87
2019-04-10T00:20:40.601Z,66.17
2019-04-10T00:23:09.015Z,59.80
2019-04-10T00:25:37.303Z,56.90
2019-04-10T00:28:05.602Z,59.80
2019-04-10T00:30:33.886Z,61.53
2019-04-10T00:33:02.721Z,67.43
2019-04-10T00:35:31.746Z,71.07
2019-04-10T00:38:00.178Z,73.30
2019-04-10T00:40:28.503Z,73.67
2019-04-10T00:42:57.161Z,68.20
2019-04-10T00:45:27.155Z,65.00
2019-04-10T00:47:55.834Z,62.03
2019-04-10T00:50:24.498Z,61.30
2019-04-10T00:52:52.910Z,61.97
2019-04-10T00:55:21.797Z,59.93
2019-04-10T00:57:50.263Z,60.87
2019-04-10T01:00:19.104Z,58.70
2019-04-10T01:02:47.848Z,59.47
2019-04-10T01:05:17.309Z,59.57
2019-04-10T01:07:46.991Z,58.83
2019-04-10T01:10:15.574Z,57.47
2019-04-10T01:12:44.085Z,57.43
2019-04-10T01:15:12.440Z,55.00
2019-04-10T01:17:40.739Z,55.83
2019-04-10T01:20:09.181Z,55.10
2019-04-10T01:22:37.716Z,54.47
2019-04-10T01:25:06.743Z,52.93
2019-04-10T01:27:36.144Z,52.27
2019-04-10T01:30:07.149Z,54.57
2019-04-10T01:32:36.412Z,53.60
2019-04-10T01:35:06.392Z,52.10
2019-04-10T01:37:46.649Z,51.20
2019-04-10T01:40:06.645Z,50.53
2019-04-10T01:42:35.157Z,50.17
2019-04-10T01:45:04.949Z,47.43
2019-04-10T01:47:33.730Z,47.97
2019-04-10T01:50:02.274Z,49.17
2019-04-10T01:52:31.131Z,48.80
2019-04-10T01:54:59.747Z,47.80
2019-04-10T01:57:28.449Z,46.57
2019-04-10T01:59:57.156Z,46.93
2019-04-10T02:02:27.371Z,43.53
2019-04-10T02:04:56.772Z,46.00
2019-04-10T02:07:26.403Z,43.70
2019-04-10T02:09:56.037Z,44.40
2019-04-10T02:12:24.634Z,43.43
2019-04-10T02:14:52.910Z,45.37
2019-04-10T02:17:22.285Z,41.97
2019-04-10T02:19:50.956Z,41.53
2019-04-10T02:22:20.414Z,41.77
2019-04-10T02:24:49.356Z,42.20
2019-04-10T02:27:18.299Z,41.70
2019-04-10T02:29:46.845Z,40.83
2019-04-10T02:32:16.511Z,40.77
2019-04-10T02:34:46.846Z,39.57
2019-04-10T02:37:15.387Z,38.90
2019-04-10T02:39:47.906Z,38.03
2019-04-10T02:42:14.391Z,37.00
2019-04-10T02:44:44.021Z,37.20
2019-04-10T02:47:13.101Z,38.47
2019-04-10T02:49:42.698Z,37.13
2019-04-10T02:52:12.825Z,37.03
2019-04-10T02:54:41.847Z,38.27
2019-04-10T02:57:11.356Z,35.33
2019-04-10T02:59:39.897Z,35.27
2019-04-10T03:02:08.664Z,35.17
2019-04-10T03:04:37.331Z,34.50
2019-04-10T03:07:07.390Z,33.40
2019-04-10T03:09:49.713Z,32.57
2019-04-10T03:12:06.385Z,33.47
2019-04-10T03:14:36.786Z,32.33
2019-04-10T03:17:06.007Z,31.67
2019-04-10T03:19:34.447Z,30.87
2019-04-10T03:22:03.795Z,31.07
2019-04-10T03:24:32.397Z,31.47
2019-04-10T03:27:01.762Z,29.67
2019-04-10T03:29:30.189Z,29.17
2019-04-10T03:32:01.906Z,30.17
2019-04-10T03:34:33.723Z,29.37
2019-04-10T03:37:01.659Z,29.17
2019-04-10T03:39:33.518Z,28.03
2019-04-10T03:42:00.976Z,29.10
2019-04-10T03:44:30.222Z,28.27
2019-04-10T03:46:58.813Z,27.93
2019-04-10T03:49:27.622Z,28.80
2019-04-10T03:51:56.723Z,28.20
2019-04-10T03:54:28.092Z,27.50
2019-04-10T03:56:56.539Z,27.20
2019-04-10T03:59:24.810Z,26.03
2019-04-10T04:01:53.433Z,26.60
2019-04-10T04:04:21.891Z,24.70
2019-04-10T04:06:50.299Z,25.60
2019-04-10T04:09:19.609Z,24.70
2019-04-10T04:11:48.181Z,24.13
2019-04-10T04:14:16.601Z,24.23
2019-04-10T04:16:44.933Z,24.23
2019-04-10T04:19:13.617Z,23.23
2019-04-10T04:21:41.921Z,24.80
2019-04-10T04:24:11.348Z,23.83
2019-04-10T04:26:39.807Z,23.60
2019-04-10T04:29:08.203Z,22.00
2019-04-10T04:31:36.787Z,23.20
2019-04-10T04:34:06.146Z,22.30
2019-04-10T04:36:35.221Z,21.63
2019-04-10T04:39:18.012Z,21.73
2019-04-10T04:41:35.953Z,21.83
2019-04-10T04:44:04.286Z,20.93
2019-04-10T04:46:32.894Z,21.37
2019-04-10T04:49:02.060Z,21.07
2019-04-10T04:51:30.644Z,20.10
2019-04-10T04:53:59.024Z,20.00
2019-04-10T04:56:28.214Z,20.17
2019-04-10T04:58:56.588Z,19.17
2019-04-10T05:01:25.214Z,18.23
2019-04-10T05:03:53.518Z,19.57
2019-04-10T05:06:22.255Z,21.50
2019-04-10T05:08:50.799Z,21.93
2019-04-10T05:11:20.082Z,24.47
2019-04-10T05:13:49.076Z,23.17
2019-04-10T05:16:18.643Z,23.03
2019-04-10T05:18:50.410Z,21.63
2019-04-10T05:21:19.171Z,22.03
2019-04-10T05:23:47.604Z,22.17
2019-04-10T05:26:16.567Z,21.80
2019-04-10T05:28:45.272Z,21.83
2019-04-10T05:31:13.557Z,20.60
2019-04-10T05:33:42.144Z,21.10
2019-04-10T05:36:10.461Z,20.00
2019-04-10T05:38:38.830Z,20.80
2019-04-10T05:41:07.129Z,20.70
2019-04-10T05:43:36.225Z,20.03
2019-04-10T05:46:04.924Z,19.97
2019-04-10T05:48:33.740Z,19.87
2019-04-10T05:51:05.639Z,19.53
2019-04-10T05:53:32.487Z,18.53
2019-04-10T05:56:01.519Z,19.23
2019-04-10T05:58:31.415Z,19.17
2019-04-10T06:01:01.425Z,18.47
2019-04-10T06:03:30.312Z,18.23
2019-04-10T06:06:01.002Z,17.93
2019-04-10T06:08:28.713Z,18.87
2019-04-10T06:10:58.133Z,18.37
2019-04-10T06:13:27.674Z,19.40
2019-04-10T06:15:56.450Z,17.27
2019-04-10T06:18:25.006Z,17.50
2019-04-10T06:20:54.488Z,17.30
2019-04-10T06:23:23.399Z,17.03
2019-04-10T06:25:52.125Z,16.57
2019-04-10T06:28:21.346Z,16.23
2019-04-10T06:30:50.582Z,15.23
2019-04-10T06:33:20.027Z,15.30
2019-04-10T06:35:48.961Z,14.73
2019-04-10T06:38:17.412Z,14.30
2019-04-10T06:40:46.101Z,16.40
2019-04-10T06:43:15.018Z,14.90
2019-04-10T06:45:44.023Z,15.40
2019-04-10T06:48:13.058Z,20.57
2019-04-10T06:50:41.780Z,27.03
2019-04-10T06:53:10.435Z,31.17
2019-04-10T06:55:38.721Z,35.97
2019-04-10T06:58:07.871Z,36.40
2019-04-10T07:00:36.929Z,36.40
2019-04-10T07:03:06.506Z,32.87
2019-04-10T07:05:41.372Z,32.73
2019-04-10T07:08:12.398Z,30.70
2019-04-10T07:10:48.260Z,31.77
2019-04-10T07:13:08.617Z,34.53
2019-04-10T07:15:35.804Z,33.90
2019-04-10T07:18:04.575Z,35.73
2019-04-10T07:20:33.691Z,39.17
2019-04-10T07:23:03.042Z,34.93
2019-04-10T07:25:32.023Z,32.83
2019-04-10T07:28:01.338Z,32.20
2019-04-10T07:30:30.551Z,34.67
2019-04-10T07:32:59.333Z,35.60
2019-04-10T07:35:28.608Z,35.83
2019-04-10T07:37:58.486Z,36.43
2019-04-10T07:40:28.308Z,36.63
2019-04-10T07:42:57.054Z,40.93
2019-04-10T07:45:27.099Z,40.77
2019-04-10T07:47:55.948Z,41.53
2019-04-10T07:50:24.323Z,42.13
2019-04-10T07:52:52.640Z,43.57
2019-04-10T07:55:22.370Z,45.37
2019-04-10T07:57:51.760Z,44.70
2019-04-10T08:00:20.498Z,40.00
2019-04-10T08:02:49.167Z,29.63
2019-04-10T08:05:18.871Z,30.77
2019-04-10T08:07:47.332Z,31.17
2019-04-10T08:10:15.999Z,33.77
2019-04-10T08:12:49.061Z,30.40
2019-04-10T08:15:14.395Z,35.33
2019-04-10T08:17:42.977Z,28.90
2019-04-10T08:20:11.548Z,33.47
2019-04-10T08:22:40.130Z,41.70
2019-04-10T08:25:08.937Z,44.07
2019-04-10T08:27:38.491Z,44.20
2019-04-10T08:30:08.540Z,43.07
2019-04-10T08:32:51.025Z,38.50
2019-04-10T08:35:07.505Z,38.37
2019-04-10T08:37:36.790Z,37.93
2019-04-10T08:40:07.464Z,36.27
2019-04-10T08:42:37.323Z,38.50
2019-04-10T08:45:07.122Z,35.43
2019-04-10T08:47:35.803Z,33.83
2019-04-10T08:50:05.664Z,33.47
2019-04-10T08:52:34.722Z,35.40
2019-04-10T08:55:03.847Z,33.90
2019-04-10T08:57:32.218Z,32.97
2019-04-10T09:00:00.523Z,32.50
2019-04-10T09:02:28.810Z,35.60
2019-04-10T09:04:57.333Z,35.57
2019-04-10T09:07:26.353Z,36.70
2019-04-10T09:09:54.730Z,35.50
2019-04-10T09:12:23.954Z,34.63
2019-04-10T09:14:52.311Z,32.93
2019-04-10T09:17:21.467Z,32.97
2019-04-10T09:19:50.118Z,31.70
2019-04-10T09:22:18.413Z,29.77
2019-04-10T09:24:46.776Z,29.60
2019-04-10T09:27:15.188Z,27.80
2019-04-10T09:29:44.528Z,30.43
2019-04-10T09:32:12.929Z,35.93
2019-04-10T09:34:42.471Z,42.03
2019-04-10T09:37:11.950Z,37.50
2019-04-10T09:39:41.298Z,36.50
2019-04-10T09:42:10.660Z,34.33
2019-04-10T09:44:40.080Z,33.10
2019-04-10T09:47:09.710Z,33.80
2019-04-10T09:49:43.148Z,34.00
2019-04-10T09:52:08.571Z,30.87
2019-04-10T09:54:36.875Z,30.70
2019-04-10T09:57:05.232Z,29.10
2019-04-10T09:59:36.943Z,27.13
2019-04-10T10:02:03.657Z,29.83
2019-04-10T10:04:33.272Z,36.60
2019-04-10T10:07:02.055Z,48.67
2019-04-10T10:09:30.903Z,43.00
2019-04-10T10:11:59.199Z,40.53
2019-04-10T10:14:28.544Z,36.77
2019-04-10T10:16:58.043Z,37.03
2019-04-10T10:19:26.454Z,34.57
2019-04-10T10:21:54.747Z,34.13
2019-04-10T10:24:23.059Z,42.27
2019-04-10T10:26:51.519Z,51.07
2019-04-10T10:29:19.903Z,50.17
2019-04-10T10:31:49.778Z,48.80
2019-04-10T10:34:18.460Z,47.30
2019-04-10T10:36:49.213Z,44.37
2019-04-10T10:39:19.019Z,44.10
2019-04-10T10:41:48.872Z,37.87
2019-04-10T10:44:17.630Z,34.33
2019-04-10T10:46:45.948Z,47.97
2019-04-10T10:49:14.281Z,42.00
2019-04-10T10:51:42.669Z,37.13
2019-04-10T10:54:11.003Z,34.83
2019-04-10T10:56:39.330Z,33.17
2019-04-10T10:59:07.622Z,30.53
2019-04-10T11:01:35.920Z,29.30
2019-04-10T11:04:04.751Z,29.37
2019-04-10T11:06:33.239Z,26.90
2019-04-10T11:09:01.974Z,26.00
2019-04-10T11:11:30.794Z,26.20
2019-04-10T11:13:59.166Z,24.93
2019-04-10T11:16:27.474Z,23.70
2019-04-10T11:18:57.532Z,41.67
2019-04-10T11:21:27.404Z,45.63
2019-04-10T11:23:55.899Z,63.90
2019-04-10T11:26:25.610Z,54.53
2019-04-10T11:28:55.704Z,54.90
2019-04-10T11:31:25.186Z,53.33
2019-04-10T11:33:55.939Z,51.23
2019-04-10T11:36:28.068Z,50.07
2019-04-10T11:39:09.074Z,50.03
2019-04-10T11:41:26.598Z,45.70
2019-04-10T11:43:56.086Z,45.13
2019-04-10T11:46:28.280Z,62.73
2019-04-10T11:48:55.412Z,54.40
2019-04-10T11:51:26.332Z,56.37
2019-04-10T11:56:26.091Z,52.70
2019-04-10T11:58:56.489Z,50.33
2019-04-10T12:01:25.533Z,49.87
2019-04-10T12:03:56.050Z,50.10
2019-04-10T12:06:25.470Z,48.60
2019-04-10T12:11:24.741Z,45.33
2019-04-10T12:13:53.064Z,44.40
2019-04-10T12:16:21.643Z,42.47
2019-04-10T12:18:50.875Z,52.27
2019-04-10T12:21:19.870Z,53.73
2019-04-10T12:23:50.114Z,53.83
2019-04-10T12:26:18.491Z,49.33
2019-04-10T12:28:46.813Z,48.40
2019-04-10T12:31:15.624Z,47.93
2019-04-10T12:33:44.431Z,44.90
2019-04-10T12:36:14.117Z,43.87
2019-04-10T12:38:43.461Z,54.63
2019-04-10T12:41:12.296Z,50.77
2019-04-10T12:43:41.119Z,51.43
2019-04-10T12:46:10.677Z,48.40
2019-04-10T12:48:39.152Z,47.70
2019-04-10T12:51:07.727Z,48.07
2019-04-10T12:53:36.609Z,44.57
2019-04-10T12:56:05.965Z,44.27
2019-04-10T12:58:34.937Z,43.43
2019-04-10T13:01:05.266Z,41.37
2019-04-10T13:03:33.570Z,57.57
2019-04-10T13:06:02.125Z,47.40
2019-04-10T13:08:47.274Z,67.53
2019-04-10T13:11:01.132Z,51.97
2019-04-10T13:13:30.313Z,55.50
2019-04-10T13:15:59.398Z,55.00
2019-04-10T13:18:28.133Z,52.97
2019-04-10T13:20:56.518Z,51.03
2019-04-10T13:23:24.871Z,66.53
2019-04-10T13:25:58.101Z,64.77
2019-04-10T13:28:23.453Z,65.07
2019-04-10T13:30:54.104Z,57.67
2019-04-10T13:33:22.605Z,57.17
2019-04-10T13:35:51.347Z,56.50
2019-04-10T13:38:26.563Z,55.10
2019-04-10T13:40:50.391Z,53.70
2019-04-10T13:43:18.670Z,45.20
2019-04-10T13:45:46.976Z,42.83
2019-04-10T13:48:16.462Z,43.10
2019-04-10T13:50:44.906Z,54.00
2019-04-10T13:53:13.452Z,51.03
2019-04-10T13:55:42.263Z,59.63
2019-04-10T13:58:10.788Z,56.37
2019-04-10T14:00:59.218Z,53.87
2019-04-10T14:03:28.041Z,54.03
2019-04-10T14:05:57.084Z,52.60
2019-04-10T14:08:41.540Z,51.90
2019-04-10T14:10:57.210Z,50.43
2019-04-10T14:13:26.045Z,48.27
2019-04-10T14:15:54.594Z,73.57
2019-04-10T14:18:24.178Z,78.47
2019-04-10T14:20:53.405Z,82.30
2019-04-10T14:23:23.545Z,78.20
2019-04-10T14:25:53.482Z,76.23
2019-04-10T14:28:23.462Z,90.20
2019-04-10T14:30:53.738Z,110.90
2019-04-10T14:33:23.318Z,132.93
2019-04-10T14:35:52.115Z,134.97
2019-04-10T14:38:21.151Z,121.33
2019-04-10T14:40:49.576Z,113.73
2019-04-10T14:43:18.729Z,136.07
2019-04-10T14:45:48.021Z,145.37
2019-04-10T14:48:16.890Z,156.97
2019-04-10T14:50:46.993Z,151.83
2019-04-10T14:53:15.431Z,137.93
2019-04-10T14:55:43.943Z,135.17
2019-04-10T14:58:20.603Z,138.03
2019-04-10T15:00:47.015Z,127.53
2019-04-10T15:03:16.125Z,118.37
2019-04-10T15:05:49.785Z,111.97
2019-04-10T15:08:15.518Z,117.53
2019-04-10T15:10:44.477Z,98.10
2019-04-10T15:13:17.466Z,102.50
2019-04-10T15:15:42.970Z,103.00
2019-04-10T15:18:11.276Z,103.63
2019-04-10T15:20:39.731Z,104.40
2019-04-10T15:23:08.412Z,103.47
2019-04-10T15:25:37.458Z,103.33
2019-04-10T15:28:06.422Z,99.60
2019-04-10T15:30:34.874Z,97.00
2019-04-10T15:33:04.453Z,96.33
2019-04-10T15:35:33.001Z,93.43
2019-04-10T15:38:01.989Z,90.27
2019-04-10T15:40:30.391Z,97.37
2019-04-10T15:42:58.787Z,93.67
2019-04-10T15:45:28.111Z,85.93
2019-04-10T15:47:58.696Z,86.23
2019-04-10T15:50:26.645Z,91.43
2019-04-10T15:52:55.794Z,87.70
2019-04-10T15:55:25.743Z,79.47
2019-04-10T15:57:57.883Z,81.70
2019-04-10T16:00:25.353Z,82.13
2019-04-10T16:02:54.042Z,80.97
2019-04-10T16:05:23.667Z,76.07
2019-04-10T16:07:55.333Z,70.50
2019-04-10T16:10:33.943Z,67.90
2019-04-10T16:13:16.632Z,72.17
2019-04-10T16:15:45.253Z,79.43
2019-04-10T16:18:21.151Z,89.23
2019-04-10T16:20:51.114Z,90.50
2019-04-10T16:23:24.118Z,90.37
2019-04-10T16:25:54.446Z,109.07
2019-04-10T16:28:23.293Z,90.13
2019-04-10T16:30:51.726Z,91.27
2019-04-10T16:33:20.553Z,86.53
2019-04-10T16:35:48.856Z,83.30
2019-04-10T16:38:17.319Z,74.27
2019-04-10T16:40:46.040Z,69.67
2019-04-10T16:43:14.553Z,60.30
2019-04-10T16:45:43.126Z,55.87
2019-04-10T16:48:11.760Z,57.00
2019-04-10T16:50:40.052Z,55.53
2019-04-10T16:53:08.612Z,55.03
2019-04-10T16:55:38.386Z,52.67
2019-04-10T16:58:07.588Z,53.27
2019-04-10T17:00:36.196Z,49.37
2019-04-10T17:03:04.726Z,49.00
2019-04-10T17:05:35.020Z,50.23
2019-04-10T17:08:03.670Z,49.37
2019-04-10T17:10:32.421Z,49.33
2019-04-10T17:13:00.867Z,47.60
2019-04-10T17:15:30.207Z,42.60
2019-04-10T17:17:58.996Z,45.33
2019-04-10T17:20:28.663Z,39.43
2019-04-10T17:22:58.388Z,38.97
2019-04-10T17:25:26.915Z,38.77
2019-04-10T17:27:56.333Z,38.83
2019-04-10T17:30:25.475Z,38.37
2019-04-10T17:32:54.328Z,37.00
2019-04-10T17:35:23.368Z,37.23
2019-04-10T17:37:52.187Z,38.97
2019-04-10T17:40:30.015Z,34.30
2019-04-10T17:42:51.035Z,29.63
2019-04-10T17:45:20.603Z,31.67
2019-04-10T17:47:49.633Z,36.57
2019-04-10T17:50:20.292Z,36.10
2019-04-10T17:52:49.162Z,36.97
2019-04-10T17:55:17.654Z,47.63
2019-04-10T17:57:49.147Z,47.47
2019-04-10T18:00:22.981Z,37.33
2019-04-10T18:02:51.392Z,35.00
2019-04-10T18:05:20.384Z,32.40
2019-04-10T18:07:48.907Z,32.07
2019-04-10T18:10:17.362Z,32.67
2019-04-10T18:12:46.062Z,40.37
2019-04-10T18:15:15.756Z,41.50
2019-04-10T18:17:44.475Z,39.43
2019-04-10T18:20:12.846Z,38.97
2019-04-10T18:22:42.739Z,39.90
2019-04-10T18:25:11.920Z,39.93
2019-04-10T18:27:41.110Z,40.27
2019-04-10T18:30:09.996Z,40.67
2019-04-10T18:32:38.595Z,43.10
2019-04-10T18:35:08.758Z,39.10
2019-04-10T18:37:40.904Z,35.50
2019-04-10T18:40:10.757Z,33.83
2019-04-10T18:42:39.902Z,34.43
2019-04-10T18:45:28.112Z,30.60
2019-04-10T18:47:56.524Z,30.87
2019-04-10T18:50:24.908Z,28.47
2019-04-10T18:52:53.932Z,29.47
2019-04-10T18:55:22.610Z,27.50
2019-04-10T18:57:51.453Z,25.60
2019-04-10T19:00:21.845Z,25.83
2019-04-10T19:02:52.924Z,26.13
2019-04-10T19:05:23.512Z,29.67
2019-04-10T19:07:51.975Z,28.80
2019-04-10T19:10:20.294Z,28.87
2019-04-10T19:12:48.823Z,27.07
2019-04-10T19:15:17.347Z,27.40
2019-04-10T19:17:46.745Z,27.00
2019-04-10T19:20:15.932Z,28.03
2019-04-10T19:22:44.729Z,23.23
2019-04-10T19:25:14.566Z,25.07
2019-04-10T19:27:44.375Z,40.03
2019-04-10T19:30:23.519Z,29.30
2019-04-10T19:32:51.985Z,40.00
2019-04-10T19:35:21.146Z,47.93
2019-04-10T19:37:51.490Z,56.33
2019-04-10T19:40:21.222Z,48.20
2019-04-10T19:42:51.420Z,43.00
2019-04-10T19:45:20.458Z,41.00
2019-04-10T19:47:48.939Z,38.10
2019-04-10T19:50:17.671Z,37.20
2019-04-10T19:52:46.761Z,34.77
2019-04-10T19:55:15.637Z,34.73
2019-04-10T19:57:44.033Z,36.23
2019-04-10T20:00:12.622Z,35.20
2019-04-10T20:02:41.732Z,35.70
2019-04-10T20:05:10.140Z,41.00
2019-04-10T20:07:38.670Z,36.47
2019-04-10T20:10:07.370Z,35.93
2019-04-10T20:12:36.972Z,37.77
2019-04-10T20:15:07.213Z,37.40
2019-04-10T20:17:36.468Z,37.07
2019-04-10T20:20:08.050Z,33.17
2019-04-10T20:22:39.117Z,32.00
2019-04-10T20:25:08.282Z,34.87
2019-04-10T20:27:36.780Z,32.17
2019-04-10T20:30:08.074Z,32.00
2019-04-10T20:32:36.444Z,31.57
2019-04-10T20:35:05.754Z,34.60
2019-04-10T20:37:34.538Z,31.70
2019-04-10T20:40:03.493Z,28.67
2019-04-10T20:42:32.233Z,28.60
2019-04-10T20:45:00.903Z,30.93
2019-04-10T20:47:29.639Z,32.77
2019-04-10T20:49:57.950Z,32.67
2019-04-10T20:52:26.357Z,31.67
2019-04-10T20:54:55.273Z,29.90
2019-04-10T20:57:23.699Z,27.83
2019-04-10T20:59:53.225Z,27.77
2019-04-10T21:02:22.324Z,26.27
2019-04-10T21:04:56.395Z,17.27
2019-04-10T21:07:21.357Z,16.23
2019-04-10T21:09:50.321Z,16.50
2019-04-10T21:12:21.023Z,17.63
2019-04-10T21:14:49.506Z,22.27
2019-04-10T21:17:18.177Z,24.23
2019-04-10T21:19:46.549Z,22.53
2019-04-10T21:22:15.844Z,46.13
2019-04-10T21:24:45.549Z,44.67
2019-04-10T21:27:14.072Z,35.70
2019-04-10T21:29:46.819Z,24.77
2019-04-10T21:32:17.260Z,24.50
2019-04-10T21:34:47.334Z,21.87
2019-04-10T21:37:15.885Z,19.37
2019-04-10T21:39:45.585Z,26.00
2019-04-10T21:42:20.101Z,25.33
2019-04-10T21:44:44.961Z,19.53
2019-04-10T21:47:13.625Z,17.43
2019-04-10T21:49:42.264Z,24.23
2019-04-10T21:52:11.053Z,20.33
2019-04-10T21:54:48.517Z,17.17
2019-04-10T21:57:09.883Z,19.50
2019-04-10T21:59:38.894Z,18.60
2019-04-10T22:02:07.853Z,19.00
2019-04-10T22:04:36.228Z,26.67
2019-04-10T22:07:25.693Z,25.70
2019-04-10T22:10:05.554Z,38.37
2019-04-10T22:12:39.592Z,40.80
2019-04-10T22:15:08.620Z,80.33
2019-04-10T22:17:38.297Z,78.93
2019-04-10T22:20:07.572Z,77.80
2019-04-10T22:22:37.108Z,59.23
2019-04-10T22:25:07.404Z,59.30
2019-04-10T22:27:35.954Z,55.83
2019-04-10T22:30:06.389Z,52.50
2019-04-10T22:32:35.320Z,51.17
2019-04-10T22:35:05.575Z,49.90
2019-04-10T22:37:35.615Z,49.93
2019-04-10T22:40:06.489Z,51.60
2019-04-10T22:42:41.675Z,48.47
2019-04-10T22:45:12.223Z,44.30
2019-04-10T22:47:41.380Z,27.07
2019-04-10T22:50:10.651Z,23.33
2019-04-10T22:52:40.100Z,24.50
2019-04-10T22:55:09.156Z,26.20
2019-04-10T22:57:39.780Z,30.47
2019-04-10T23:00:07.830Z,31.30
2019-04-10T23:02:36.149Z,31.93
2019-04-10T23:05:04.708Z,33.07
2019-04-10T23:07:33.641Z,32.30
2019-04-10T23:10:02.608Z,31.93
2019-04-10T23:12:32.040Z,27.67
2019-04-10T23:15:00.831Z,25.30
2019-04-10T23:17:29.266Z,26.70
2019-04-10T23:19:58.528Z,34.07
2019-04-10T23:22:27.368Z,30.73
2019-04-10T23:24:58.214Z,29.57
2019-04-10T23:27:26.805Z,31.77
2019-04-10T23:29:55.507Z,29.27
2019-04-10T23:32:23.810Z,28.20
2019-04-10T23:34:52.731Z,28.57
2019-04-10T23:37:21.050Z,30.03
2019-04-10T23:39:51.000Z,27.53
2019-04-10T23:42:19.588Z,24.20
2019-04-10T23:44:47.902Z,29.50
2019-04-10T23:47:18.108Z,26.77
2019-04-10T23:49:47.844Z,26.53
2019-04-10T23:52:16.285Z,26.27
2019-04-10T23:54:45.800Z,28.43
2019-04-10T23:57:14.224Z,28.00
2019-04-10T23:59:42.671Z,27.00
